Time;durP1;ratioP1;P1;durP2;ratioP2;P2;SDS_P1;SDS_P2;PMS_P1;PMS_P2;Temp;Humidity;BMP_temperature;BMP_pressure;BME280_temperature;BME280_humidity;BME280_pressure;Samples;Min_cycle;Max_cycle;Signal;HPM_P1;HPM_P2
2024/01/31 00:01:20;;;;;;;19.97;10.20;;;9.40;75.50;;;;;;5024992;28;20213;-70
2024/01/31 00:03:46;;;;;;;19.13;10.97;;;9.30;75.70;;;;;;5024230;28;20647;-70
2024/01/31 00:06:12;;;;;;;20.60;11.50;;;9.30;75.90;;;;;;5025236;28;20209;-71
2024/01/31 00:08:38;;;;;;;18.83;10.23;;;9.20;76.20;;;;;;5027459;28;20420;-70
2024/01/31 00:11:03;;;;;;;20.33;10.77;;;9.30;76.80;;;;;;5024986;28;20459;-71
2024/01/31 00:13:29;;;;;;;19.30;11.40;;;9.40;76.50;;;;;;5029626;28;20232;-73
2024/01/31 00:15:55;;;;;;;18.97;11.00;;;9.30;76.50;;;;;;5027008;28;20207;-72
2024/01/31 00:18:21;;;;;;;15.30;10.13;;;9.40;76.80;;;;;;5032452;28;20424;-72
2024/01/31 00:20:46;;;;;;;26.57;11.63;;;9.40;76.80;;;;;;5028444;28;20299;-72
2024/01/31 00:23:12;;;;;;;22.13;13.13;;;9.40;77.00;;;;;;5025545;28;20582;-71
2024/01/31 00:25:38;;;;;;;26.77;10.77;;;9.40;76.80;;;;;;5032570;28;20220;-72
2024/01/31 00:28:04;;;;;;;22.90;10.43;;;9.20;76.70;;;;;;5026795;28;20455;-72
2024/01/31 00:30:29;;;;;;;17.70;10.20;;;9.40;76.50;;;;;;5027043;28;20872;-72
2024/01/31 00:32:55;;;;;;;16.57;10.93;;;9.50;75.50;;;;;;5027224;28;20186;-70
2024/01/31 00:35:20;;;;;;;16.20;10.30;;;9.40;75.40;;;;;;5027512;28;20672;-70
2024/01/31 00:37:46;;;;;;;17.50;9.67;;;9.30;75.80;;;;;;5032090;28;20185;-70
2024/01/31 00:40:12;;;;;;;16.83;10.50;;;9.30;75.90;;;;;;5028877;28;20232;-71
2024/01/31 00:42:39;;;;;;;17.67;10.23;;;9.30;76.20;;;;;;5021985;28;20181;-72
2024/01/31 00:45:08;;;;;;;15.37;9.70;;;9.30;76.40;;;;;;5029257;28;20416;-72
2024/01/31 00:47:33;;;;;;;14.53;9.60;;;9.40;76.40;;;;;;5026657;28;20992;-70
2024/01/31 00:49:59;;;;;;;19.10;10.43;;;9.40;76.50;;;;;;5030196;28;20459;-72
2024/01/31 00:52:24;;;;;;;15.80;9.77;;;9.40;76.70;;;;;;5023545;28;20658;-72
2024/01/31 00:54:50;;;;;;;20.97;11.40;;;9.40;76.50;;;;;;5027687;28;20263;-73
2024/01/31 00:57:17;;;;;;;17.90;10.90;;;9.40;76.70;;;;;;5032320;28;20177;-71
2024/01/31 00:59:43;;;;;;;17.00;10.73;;;9.50;76.70;;;;;;5032220;28;20198;-72
2024/01/31 01:02:09;;;;;;;17.70;10.73;;;9.40;76.50;;;;;;5027700;28;20534;-72
2024/01/31 01:04:35;;;;;;;24.40;11.97;;;9.50;76.50;;;;;;5033888;28;20440;-72
2024/01/31 01:07:01;;;;;;;18.70;12.20;;;9.60;75.70;;;;;;5034574;28;20697;-71
2024/01/31 01:09:26;;;;;;;22.10;12.00;;;9.40;75.50;;;;;;5028804;28;20467;-71
2024/01/31 01:11:52;;;;;;;25.93;11.83;;;9.30;76.20;;;;;;5027502;28;20233;-70
2024/01/31 01:14:17;;;;;;;15.03;9.93;;;9.30;76.80;;;;;;5032356;28;20182;-72
2024/01/31 01:16:43;;;;;;;22.17;12.03;;;9.30;77.00;;;;;;5029918;28;20211;-71
2024/01/31 01:19:09;;;;;;;22.30;11.37;;;9.40;77.00;;;;;;5033384;28;20663;-73
2024/01/31 01:21:36;;;;;;;15.27;10.00;;;9.40;77.00;;;;;;5025866;28;20476;-70
2024/01/31 01:24:01;;;;;;;17.50;10.20;;;9.50;76.70;;;;;;5031376;28;20208;-71
2024/01/31 01:26:27;;;;;;;19.47;9.70;;;9.50;76.50;;;;;;5035249;28;20468;-70
2024/01/31 01:28:52;;;;;;;15.57;9.97;;;9.50;76.20;;;;;;5032451;28;20181;-70
2024/01/31 01:31:18;;;;;;;20.03;10.60;;;9.60;75.80;;;;;;5030360;28;20327;-72
2024/01/31 01:33:44;;;;;;;19.27;9.73;;;9.60;75.40;;;;;;5029989;28;20192;-71
2024/01/31 01:36:10;;;;;;;11.93;9.73;;;9.50;75.40;;;;;;5026953;28;20667;-71
2024/01/31 01:38:38;;;;;;;17.17;9.97;;;9.50;75.20;;;;;;5027714;28;20430;-70
2024/01/31 01:41:04;;;;;;;15.17;9.60;;;9.40;75.50;;;;;;5024825;28;20205;-72
2024/01/31 01:43:30;;;;;;;18.27;10.03;;;9.50;75.70;;;;;;5032786;28;20457;-72
2024/01/31 01:46:06;;;;;;;19.40;10.07;;;9.40;75.90;;;;;;5030791;28;20466;-71
2024/01/31 01:48:32;;;;;;;14.97;9.37;;;9.40;76.50;;;;;;5032729;28;20185;-72
2024/01/31 01:50:57;;;;;;;15.60;9.20;;;9.40;76.50;;;;;;5026333;28;21224;-70
2024/01/31 01:53:23;;;;;;;12.87;8.37;;;9.50;76.70;;;;;;5023893;28;21080;-71
2024/01/31 01:55:49;;;;;;;19.23;10.57;;;9.40;76.50;;;;;;5029229;28;20732;-72
2024/01/31 01:58:15;;;;;;;16.93;9.00;;;9.40;76.50;;;;;;5031718;28;20181;-73
2024/01/31 02:00:43;;;;;;;19.70;8.77;;;9.40;75.90;;;;;;5029228;28;20228;-72
2024/01/31 02:03:09;;;;;;;18.40;9.40;;;9.40;76.20;;;;;;5024521;28;20574;-71
2024/01/31 02:05:36;;;;;;;13.13;8.70;;;9.40;76.50;;;;;;5035305;28;20452;-69
2024/01/31 02:08:02;;;;;;;15.37;9.23;;;9.40;76.70;;;;;;5035011;28;20674;-71
2024/01/31 02:10:28;;;;;;;15.33;9.63;;;9.40;77.00;;;;;;5030585;28;21143;-70
2024/01/31 02:12:53;;;;;;;19.73;9.87;;;9.40;76.80;;;;;;5024242;28;20436;-71
2024/01/31 02:15:19;;;;;;;15.70;9.20;;;9.50;76.70;;;;;;5029431;28;20268;-71
2024/01/31 02:17:45;;;;;;;15.30;9.20;;;9.50;76.50;;;;;;5026154;28;20189;-72
2024/01/31 02:20:15;;;;;;;17.50;8.77;;;9.40;76.70;;;;;;5026685;28;20210;-72
2024/01/31 02:22:45;;;;;;;14.80;8.33;;;9.30;77.00;;;;;;5024629;28;20194;-71
2024/01/31 02:25:13;;;;;;;14.67;8.90;;;9.30;76.80;;;;;;5023831;28;20436;-72
2024/01/31 02:27:39;;;;;;;11.57;8.00;;;9.30;77.10;;;;;;5026506;28;20468;-72
2024/01/31 02:30:06;;;;;;;13.17;8.00;;;9.30;77.40;;;;;;5031345;28;20451;-72
2024/01/31 02:32:32;;;;;;;14.37;7.87;;;9.40;77.40;;;;;;5028446;28;20800;-72
2024/01/31 02:34:58;;;;;;;14.13;8.83;;;9.50;77.10;;;;;;5030261;28;20539;-71
2024/01/31 02:37:23;;;;;;;14.90;8.73;;;9.50;77.00;;;;;;5032335;28;20176;-71
2024/01/31 02:39:49;;;;;;;17.20;8.60;;;9.60;77.00;;;;;;5029234;28;20197;-70
2024/01/31 02:42:15;;;;;;;12.87;8.87;;;9.60;77.00;;;;;;5030594;28;20209;-70
2024/01/31 02:44:40;;;;;;;15.40;8.77;;;9.60;76.80;;;;;;5024611;28;20504;-70
2024/01/31 02:47:06;;;;;;;13.93;8.07;;;9.60;76.70;;;;;;5027826;28;20209;-71
2024/01/31 02:49:32;;;;;;;12.23;7.60;;;9.70;76.50;;;;;;5032825;28;20280;-72
2024/01/31 02:51:57;;;;;;;12.27;8.00;;;9.70;76.40;;;;;;5024659;28;20205;-70
2024/01/31 02:54:23;;;;;;;10.30;7.77;;;9.70;76.40;;;;;;5027403;28;20185;-72
2024/01/31 02:56:48;;;;;;;11.83;7.70;;;9.70;76.50;;;;;;5034520;28;20174;-71
2024/01/31 02:59:14;;;;;;;13.87;8.17;;;9.70;76.40;;;;;;5033786;28;20177;-69
2024/01/31 03:01:44;;;;;;;13.63;8.57;;;9.70;76.20;;;;;;5031177;28;20614;-71
2024/01/31 03:04:10;;;;;;;16.23;8.87;;;9.60;76.20;;;;;;5028353;28;20201;-70
2024/01/31 03:06:35;;;;;;;12.20;8.13;;;9.60;75.90;;;;;;5038891;28;20468;-71
2024/01/31 03:09:01;;;;;;;13.77;8.43;;;9.60;76.10;;;;;;5030881;28;20201;-71
2024/01/31 03:11:26;;;;;;;13.17;8.00;;;9.60;76.10;;;;;;5023616;28;20251;-70
2024/01/31 03:13:53;;;;;;;16.53;8.97;;;9.60;76.10;;;;;;5027306;28;20563;-70
2024/01/31 03:16:18;;;;;;;14.00;8.70;;;9.60;76.50;;;;;;5024598;28;20216;-70
2024/01/31 03:18:44;;;;;;;15.70;8.70;;;9.60;76.70;;;;;;5023844;28;20427;-70
2024/01/31 03:21:09;;;;;;;16.60;9.00;;;9.60;76.50;;;;;;5025840;28;20761;-71
2024/01/31 03:23:36;;;;;;;13.17;8.63;;;9.60;76.50;;;;;;5023631;28;20299;-73
2024/01/31 03:26:02;;;;;;;15.47;8.77;;;9.60;76.50;;;;;;5030952;28;20220;-69
2024/01/31 03:28:28;;;;;;;20.03;10.40;;;9.70;76.50;;;;;;5031818;28;20443;-70
2024/01/31 03:30:53;;;;;;;17.47;10.43;;;9.60;76.20;;;;;;5029686;28;20472;-70
2024/01/31 03:33:19;;;;;;;17.73;10.50;;;9.50;76.40;;;;;;5028380;28;20595;-71
2024/01/31 03:35:44;;;;;;;20.70;9.60;;;9.50;76.50;;;;;;5035177;28;20283;-71
2024/01/31 03:38:10;;;;;;;20.93;12.20;;;9.50;76.50;;;;;;5029995;28;20406;-71
2024/01/31 03:40:36;;;;;;;19.77;12.00;;;9.40;76.70;;;;;;5026810;28;20335;-72
2024/01/31 03:43:02;;;;;;;24.60;12.93;;;9.30;76.50;;;;;;5026418;28;20185;-72
2024/01/31 03:45:28;;;;;;;27.97;11.37;;;9.20;76.70;;;;;;5032148;28;21432;-70
2024/01/31 03:47:53;;;;;;;22.00;12.60;;;9.30;76.50;;;;;;5033336;28;20486;-71
2024/01/31 03:50:19;;;;;;;20.87;12.67;;;9.40;76.40;;;;;;5033997;28;20263;-70
2024/01/31 03:52:45;;;;;;;23.80;14.43;;;9.30;76.10;;;;;;5036082;28;20207;-71
2024/01/31 03:55:11;;;;;;;22.10;12.73;;;9.20;75.90;;;;;;5031040;28;20468;-71
2024/01/31 03:57:37;;;;;;;22.27;12.30;;;9.20;76.10;;;;;;5040796;28;20514;-71
2024/01/31 04:00:05;;;;;;;22.00;12.80;;;9.20;76.20;;;;;;5036218;28;20185;-71
2024/01/31 04:02:31;;;;;;;23.17;13.13;;;9.20;76.10;;;;;;5032383;28;20527;-70
2024/01/31 04:04:58;;;;;;;25.67;13.93;;;9.20;76.10;;;;;;5034717;28;20434;-70
2024/01/31 04:07:24;;;;;;;24.67;13.60;;;9.30;76.10;;;;;;5035619;28;20546;-74
2024/01/31 04:09:49;;;;;;;20.80;12.00;;;9.30;76.10;;;;;;5033466;28;20505;-70
2024/01/31 04:12:15;;;;;;;20.00;12.93;;;9.40;76.10;;;;;;5028370;28;20439;-69
2024/01/31 04:14:41;;;;;;;19.30;12.10;;;9.30;75.90;;;;;;5036030;28;20204;-70
2024/01/31 04:17:06;;;;;;;19.63;11.90;;;9.30;76.20;;;;;;5035022;28;20204;-71
2024/01/31 04:19:32;;;;;;;20.73;12.63;;;9.30;76.10;;;;;;5034781;28;20193;-70
2024/01/31 04:21:57;;;;;;;18.17;11.20;;;9.30;76.20;;;;;;5033729;28;20221;-71
2024/01/31 04:24:23;;;;;;;20.83;11.63;;;9.30;76.50;;;;;;5032827;28;20240;-70
2024/01/31 04:26:48;;;;;;;24.70;12.23;;;9.40;76.40;;;;;;5028450;28;20213;-73
2024/01/31 04:29:14;;;;;;;21.73;11.50;;;9.40;76.20;;;;;;5035898;28;20200;-71
2024/01/31 04:31:40;;;;;;;16.07;11.10;;;9.40;76.10;;;;;;5026056;28;20283;-70
2024/01/31 04:34:06;;;;;;;24.13;10.40;;;9.40;76.10;;;;;;5035078;28;20188;-70
2024/01/31 04:36:32;;;;;;;15.83;9.50;;;9.40;76.10;;;;;;5035676;28;20585;-71
2024/01/31 04:38:58;;;;;;;17.23;9.20;;;9.50;75.90;;;;;;5037182;28;20174;-71
2024/01/31 04:41:24;;;;;;;17.10;10.13;;;9.50;75.70;;;;;;5043976;28;20460;-71
2024/01/31 04:43:49;;;;;;;15.20;8.87;;;9.60;75.50;;;;;;5031799;28;20452;-72
2024/01/31 04:46:15;;;;;;;14.10;8.53;;;9.50;75.70;;;;;;5035908;28;20220;-70
2024/01/31 04:48:41;;;;;;;15.30;9.50;;;9.60;75.80;;;;;;5027773;28;20190;-72
2024/01/31 04:51:06;;;;;;;14.30;9.00;;;9.60;75.50;;;;;;5026598;28;20224;-71
2024/01/31 04:53:32;;;;;;;16.40;8.53;;;9.50;75.50;;;;;;5032125;28;20208;-71
2024/01/31 04:55:57;;;;;;;13.10;7.37;;;9.50;75.90;;;;;;5040504;28;20200;-72
2024/01/31 04:58:23;;;;;;;12.97;9.40;;;9.50;75.90;;;;;;5036469;28;20311;-71
2024/01/31 05:00:48;;;;;;;23.43;12.70;;;9.40;76.20;;;;;;5031254;28;20712;-70
2024/01/31 05:03:14;;;;;;;23.67;12.80;;;9.30;76.70;;;;;;5032763;28;20177;-71
2024/01/31 05:05:40;;;;;;;24.53;14.17;;;9.30;76.50;;;;;;5029599;28;20296;-71
2024/01/31 05:08:06;;;;;;;21.07;14.17;;;9.30;76.10;;;;;;5037951;28;20181;-70
2024/01/31 05:10:34;;;;;;;34.93;16.17;;;9.30;76.10;;;;;;5036913;28;20212;-71
2024/01/31 05:13:00;;;;;;;24.17;14.87;;;9.30;75.80;;;;;;5032708;28;20454;-72
2024/01/31 05:15:25;;;;;;;25.33;14.73;;;9.20;75.50;;;;;;5031479;28;20416;-71
2024/01/31 05:17:51;;;;;;;25.43;14.47;;;9.20;75.80;;;;;;5033137;28;20486;-72
2024/01/31 05:20:16;;;;;;;23.27;14.50;;;9.30;75.70;;;;;;5028781;28;20216;-72
2024/01/31 05:22:42;;;;;;;31.07;16.27;;;9.30;75.50;;;;;;5028918;28;20192;-71
2024/01/31 05:25:08;;;;;;;28.13;15.10;;;9.40;75.50;;;;;;5029353;28;20189;-72
2024/01/31 05:27:35;;;;;;;24.27;13.80;;;9.40;75.20;;;;;;5031997;28;20262;-70
2024/01/31 05:30:03;;;;;;;22.00;14.80;;;9.40;75.20;;;;;;5031267;28;20436;-71
2024/01/31 05:32:30;;;;;;;28.23;16.10;;;9.30;75.10;;;;;;5028448;28;20963;-72
2024/01/31 05:34:55;;;;;;;34.30;15.17;;;9.20;75.10;;;;;;5029016;28;20978;-70
2024/01/31 05:37:21;;;;;;;24.87;14.20;;;9.20;75.50;;;;;;5033009;28;20427;-71
2024/01/31 05:39:47;;;;;;;26.63;15.27;;;9.20;75.50;;;;;;5032332;28;20192;-73
2024/01/31 05:42:14;;;;;;;25.87;14.77;;;9.40;75.20;;;;;;5027951;28;20213;-72
2024/01/31 05:44:39;;;;;;;27.23;15.63;;;9.40;74.90;;;;;;5031102;28;20193;-70
2024/01/31 05:47:05;;;;;;;30.70;16.50;;;9.40;74.60;;;;;;5026170;28;20467;-72
2024/01/31 05:49:31;;;;;;;26.23;15.80;;;9.30;74.60;;;;;;5033120;28;20177;-71
2024/01/31 05:51:56;;;;;;;26.33;14.80;;;9.20;75.10;;;;;;5021090;28;20209;-71
2024/01/31 05:54:22;;;;;;;15.67;9.53;;;9.10;75.20;;;;;;5029013;28;20191;-70
2024/01/31 05:56:50;;;;;;;18.10;12.07;;;9.00;76.10;;;;;;5034117;28;20188;-71
2024/01/31 05:59:15;;;;;;;27.73;15.97;;;9.20;76.80;;;;;;5033786;28;20221;-72
2024/01/31 06:01:41;;;;;;;30.27;16.00;;;9.10;76.70;;;;;;5028130;28;20464;-73
2024/01/31 06:04:09;;;;;;;21.37;13.53;;;9.20;76.20;;;;;;5029735;28;20623;-72
2024/01/31 06:06:34;;;;;;;24.70;14.73;;;9.20;76.10;;;;;;5033885;28;20213;-72
2024/01/31 06:09:00;;;;;;;24.40;14.60;;;9.30;75.80;;;;;;5030009;28;20622;-71
2024/01/31 06:11:26;;;;;;;27.33;15.80;;;9.30;75.50;;;;;;5029375;28;20669;-72
2024/01/31 06:13:51;;;;;;;23.70;15.00;;;9.30;75.70;;;;;;5029870;28;20181;-72
2024/01/31 06:16:17;;;;;;;26.20;14.67;;;9.30;75.70;;;;;;5029453;28;20524;-72
2024/01/31 06:18:43;;;;;;;23.70;14.23;;;9.20;75.70;;;;;;5029727;28;20694;-70
2024/01/31 06:21:08;;;;;;;25.53;14.47;;;9.20;75.80;;;;;;5028825;28;20218;-72
2024/01/31 06:23:34;;;;;;;25.90;14.40;;;9.30;75.90;;;;;;5026534;28;20304;-71
2024/01/31 06:26:06;;;;;;;25.00;15.33;;;9.30;75.80;;;;;;5035490;28;20228;-71
2024/01/31 06:28:31;;;;;;;33.40;17.13;;;9.40;75.70;;;;;;5028476;28;20189;-70
2024/01/31 06:31:03;;;;;;;27.40;15.90;;;8.90;75.90;;;;;;5028784;28;20451;-70
2024/01/31 06:33:31;;;;;;;28.00;15.70;;;8.60;77.10;;;;;;5038199;28;20258;-73
2024/01/31 06:35:58;;;;;;;31.80;16.30;;;8.60;77.70;;;;;;5033600;28;21138;-70
2024/01/31 06:38:23;;;;;;;28.23;14.20;;;8.60;77.80;;;;;;5031577;28;20440;-71
2024/01/31 06:40:49;;;;;;;28.50;15.60;;;8.70;77.80;;;;;;5035719;28;20462;-71
2024/01/31 06:43:15;;;;;;;25.30;13.80;;;8.70;78.00;;;;;;5032612;28;20424;-70
2024/01/31 06:45:45;;;;;;;26.97;14.10;;;8.70;78.10;;;;;;5029886;28;20193;-71
2024/01/31 06:48:11;;;;;;;33.43;15.33;;;8.80;78.10;;;;;;5029681;28;20193;-71
2024/01/31 06:50:36;;;;;;;31.93;16.17;;;8.80;78.00;;;;;;5029073;28;20506;-71
2024/01/31 06:53:02;;;;;;;34.90;16.50;;;8.80;77.80;;;;;;5024296;28;20670;-70
2024/01/31 06:55:27;;;;;;;37.40;16.93;;;8.90;77.80;;;;;;5028130;28;20314;-71
2024/01/31 06:57:53;;;;;;;29.53;15.30;;;8.90;77.60;;;;;;5031275;28;20193;-70
2024/01/31 07:00:19;;;;;;;25.83;14.37;;;8.90;77.80;;;;;;5024194;28;20213;-71
2024/01/31 07:02:44;;;;;;;23.90;14.70;;;8.90;78.00;;;;;;5024835;28;20189;-70
2024/01/31 07:05:10;;;;;;;23.60;14.80;;;9.00;78.10;;;;;;5030345;28;20185;-70
2024/01/31 07:07:35;;;;;;;27.50;15.33;;;9.10;78.10;;;;;;5031289;28;20283;-70
2024/01/31 07:10:01;;;;;;;26.13;13.13;;;9.10;78.00;;;;;;5027929;28;20193;-71
2024/01/31 07:12:27;;;;;;;22.93;13.03;;;9.10;78.00;;;;;;5033674;28;20260;-71
2024/01/31 07:14:53;;;;;;;27.80;13.80;;;9.10;78.00;;;;;;5025624;28;20456;-70
2024/01/31 07:17:19;;;;;;;20.67;13.73;;;9.20;78.10;;;;;;5035363;28;20245;-70
2024/01/31 07:19:44;;;;;;;21.00;12.30;;;9.10;78.30;;;;;;5023910;28;20181;-70
2024/01/31 07:22:10;;;;;;;21.30;13.67;;;9.00;78.90;;;;;;5026874;28;20467;-69
2024/01/31 07:24:36;;;;;;;21.47;13.23;;;9.10;79.30;;;;;;5027742;28;20177;-70
2024/01/31 07:27:02;;;;;;;24.63;13.20;;;9.10;79.30;;;;;;5027654;28;20216;-70
2024/01/31 07:29:28;;;;;;;21.73;12.70;;;9.20;79.20;;;;;;5028000;28;20185;-71
2024/01/31 07:31:54;;;;;;;17.97;12.00;;;9.30;79.00;;;;;;5027865;28;21026;-71
2024/01/31 07:34:20;;;;;;;20.60;12.03;;;9.40;79.00;;;;;;5030032;28;20451;-71
2024/01/31 07:36:45;;;;;;;18.43;11.73;;;9.40;78.90;;;;;;5024579;28;20231;-72
2024/01/31 07:39:11;;;;;;;21.10;12.00;;;9.50;78.70;;;;;;5031424;28;20463;-71
2024/01/31 07:41:37;;;;;;;20.70;10.63;;;9.50;78.10;;;;;;5021210;28;20648;-71
2024/01/31 07:44:03;;;;;;;21.83;12.10;;;9.50;77.80;;;;;;5028602;28;20206;-71
2024/01/31 07:46:30;;;;;;;24.07;12.57;;;9.50;77.10;;;;;;5031194;28;21024;-70
2024/01/31 07:48:58;;;;;;;21.83;12.33;;;9.50;76.80;;;;;;5030562;28;20451;-71
2024/01/31 07:51:24;;;;;;;19.20;10.80;;;9.50;76.80;;;;;;5026271;28;20868;-71
2024/01/31 07:53:50;;;;;;;20.33;11.53;;;9.40;76.80;;;;;;5024853;28;20416;-69
2024/01/31 07:56:15;;;;;;;31.30;13.93;;;9.40;77.00;;;;;;5030212;28;20192;-71
2024/01/31 07:58:41;;;;;;;32.57;15.90;;;9.40;77.10;;;;;;5030638;28;20185;-70
2024/01/31 08:01:06;;;;;;;24.03;15.50;;;9.30;76.70;;;;;;5021389;28;20244;-70
2024/01/31 08:03:34;;;;;;;29.93;17.23;;;9.00;77.40;;;;;;5030001;28;20271;-71
2024/01/31 08:06:00;;;;;;;29.77;16.10;;;9.10;78.00;;;;;;5028982;28;20212;-70
2024/01/31 08:08:27;;;;;;;29.70;15.40;;;9.00;77.80;;;;;;5030228;28;20470;-71
2024/01/31 08:10:52;;;;;;;26.37;16.13;;;9.00;78.40;;;;;;5027753;28;20229;-71
2024/01/31 08:13:18;;;;;;;28.07;15.63;;;9.00;78.60;;;;;;5026627;28;20918;-69
2024/01/31 08:15:43;;;;;;;32.10;15.90;;;9.00;78.60;;;;;;5029669;28;20201;-70
2024/01/31 08:18:09;;;;;;;34.03;16.40;;;9.00;78.60;;;;;;5031311;28;20264;-71
2024/01/31 08:20:35;;;;;;;40.10;18.10;;;9.00;78.90;;;;;;5024019;28;20285;-73
2024/01/31 08:23:00;;;;;;;26.63;15.00;;;9.10;78.70;;;;;;5042557;23;20886;-73
2024/01/31 08:25:26;;;;;;;26.43;14.50;;;9.20;78.70;;;;;;5046201;28;20233;-72
2024/01/31 08:27:53;;;;;;;29.33;15.10;;;9.40;78.90;;;;;;5045290;28;20673;-72
2024/01/31 08:30:21;;;;;;;24.60;13.20;;;9.40;78.90;;;;;;5041754;28;20213;-72
2024/01/31 08:32:46;;;;;;;30.47;17.23;;;9.40;79.00;;;;;;5022840;28;20490;-72
2024/01/31 08:35:12;;;;;;;34.23;16.50;;;9.50;79.60;;;;;;5032907;28;20447;-72
2024/01/31 08:37:38;;;;;;;28.87;14.83;;;9.50;79.70;;;;;;5032739;28;20185;-73
2024/01/31 08:40:05;;;;;;;36.43;16.67;;;9.50;80.20;;;;;;5030069;28;20185;-72
2024/01/31 08:42:31;;;;;;;29.23;17.07;;;9.60;80.20;;;;;;5028318;28;20193;-73
2024/01/31 08:44:56;;;;;;;28.33;17.27;;;9.50;80.50;;;;;;5033336;28;20443;-72
2024/01/31 08:47:22;;;;;;;38.57;19.00;;;9.50;80.90;;;;;;5032774;28;20467;-73
2024/01/31 08:49:49;;;;;;;32.53;17.60;;;9.50;80.80;;;;;;5032864;28;20283;-71
2024/01/31 08:52:14;;;;;;;34.10;17.60;;;9.30;81.20;;;;;;5030609;28;20185;-73
2024/01/31 08:54:40;;;;;;;29.63;15.17;;;9.30;82.10;;;;;;5033203;28;20815;-73
2024/01/31 08:57:06;;;;;;;36.53;17.73;;;9.50;82.10;;;;;;5034152;28;20614;-72
2024/01/31 08:59:31;;;;;;;29.20;18.13;;;9.50;81.70;;;;;;5036842;28;20561;-72
2024/01/31 09:01:57;;;;;;;34.13;16.37;;;9.50;81.20;;;;;;5035153;28;20209;-73
2024/01/31 09:04:23;;;;;;;30.40;16.23;;;9.60;81.40;;;;;;5039258;28;20391;-72
2024/01/31 09:06:48;;;;;;;30.27;16.70;;;9.60;81.20;;;;;;5036677;28;20216;-73
2024/01/31 09:09:14;;;;;;;35.23;16.50;;;9.60;81.20;;;;;;5032668;28;20276;-73
2024/01/31 09:11:39;;;;;;;31.50;16.90;;;9.60;81.40;;;;;;5026544;28;20626;-72
2024/01/31 09:14:05;;;;;;;30.77;16.10;;;9.70;81.50;;;;;;5031898;28;20194;-72
2024/01/31 09:16:30;;;;;;;42.10;18.47;;;9.70;81.50;;;;;;5034886;28;20189;-71
2024/01/31 09:18:56;;;;;;;33.43;17.70;;;9.80;81.40;;;;;;5035711;28;20567;-72
2024/01/31 09:21:26;;;;;;;42.77;18.50;;;9.90;81.20;;;;;;5031094;28;20232;-73
2024/01/31 09:23:56;;;;;;;36.90;18.43;;;10.00;80.80;;;;;;5026476;28;20189;-73
2024/01/31 09:26:21;;;;;;;30.83;17.37;;;9.80;80.30;;;;;;5032526;28;20541;-74
2024/01/31 09:28:47;;;;;;;29.90;17.10;;;9.90;80.60;;;;;;5031337;28;20412;-72
2024/01/31 09:31:23;;;;;;;29.50;17.53;;;10.00;80.30;;;;;;5020545;28;20855;-72
2024/01/31 09:33:50;;;;;;;37.97;19.07;;;10.10;80.30;;;;;;5027942;28;20239;-72
2024/01/31 09:36:16;;;;;;;29.37;17.53;;;10.00;80.20;;;;;;5032377;28;20800;-74
2024/01/31 09:38:41;;;;;;;31.47;15.63;;;10.10;80.30;;;;;;5033620;28;20439;-74
2024/01/31 09:41:07;;;;;;;33.50;18.50;;;10.20;80.00;;;;;;5030106;28;20467;-71
2024/01/31 09:43:33;;;;;;;33.40;18.30;;;10.30;79.70;;;;;;5029938;28;20358;-72
2024/01/31 09:46:03;;;;;;;30.03;17.07;;;10.40;79.30;;;;;;5033171;28;20200;-73
2024/01/31 09:48:30;;;;;;;40.70;16.90;;;10.40;79.00;;;;;;5034034;28;20283;-71
2024/01/31 09:50:55;;;;;;;29.00;16.63;;;10.40;79.00;;;;;;5028435;28;20479;-72
2024/01/31 09:53:22;;;;;;;28.87;16.23;;;10.50;79.00;;;;;;5028085;28;20424;-72
2024/01/31 09:55:54;;;;;;;32.93;16.80;;;10.50;78.70;;;;;;5031457;28;20196;-72
2024/01/31 09:58:21;;;;;;;28.73;17.53;;;10.30;78.60;;;;;;5030983;28;20523;-73
2024/01/31 10:00:46;;;;;;;31.93;18.40;;;10.30;78.90;;;;;;5022538;28;20456;-72
2024/01/31 10:03:12;;;;;;;42.33;20.40;;;10.30;79.00;;;;;;5027830;28;20427;-72
2024/01/31 10:05:38;;;;;;;39.07;19.33;;;10.30;78.70;;;;;;5031472;28;20319;-72
2024/01/31 10:08:04;;;;;;;33.20;18.27;;;10.00;79.20;;;;;;5030156;28;20232;-71
2024/01/31 10:10:30;;;;;;;34.20;17.87;;;10.00;79.90;;;;;;5024614;28;20227;-73
2024/01/31 10:12:56;;;;;;;34.90;18.30;;;10.20;79.60;;;;;;5023655;28;20933;-73
2024/01/31 10:15:21;;;;;;;36.40;18.53;;;10.30;79.20;;;;;;5028607;28;20416;-71
2024/01/31 10:17:47;;;;;;;32.57;18.07;;;10.20;79.00;;;;;;5031305;28;20185;-72
2024/01/31 10:20:16;;;;;;;33.70;18.33;;;10.20;79.30;;;;;;5028677;28;20359;-73
2024/01/31 10:22:45;;;;;;;32.13;18.07;;;10.30;79.00;;;;;;5029050;28;20205;-72
2024/01/31 10:25:15;;;;;;;33.40;18.43;;;10.40;79.00;;;;;;5025995;28;20455;-71
2024/01/31 10:27:41;;;;;;;30.40;17.50;;;10.40;78.90;;;;;;5029770;28;20476;-72
2024/01/31 10:30:10;;;;;;;32.30;18.17;;;10.50;78.60;;;;;;5028190;28;20975;-71
2024/01/31 10:32:38;;;;;;;35.30;19.70;;;10.50;78.40;;;;;;5024166;28;20455;-72
2024/01/31 10:35:05;;;;;;;34.53;18.43;;;10.30;78.40;;;;;;5026350;28;20514;-71
2024/01/31 10:37:31;;;;;;;33.50;19.13;;;10.30;78.70;;;;;;5030194;28;20424;-72
2024/01/31 10:39:58;;;;;;;33.20;17.03;;;10.40;79.00;;;;;;5029160;28;20427;-70
2024/01/31 10:42:25;;;;;;;38.53;20.03;;;10.50;78.60;;;;;;5021186;28;20921;-72
2024/01/31 10:44:51;;;;;;;33.83;18.20;;;10.50;78.10;;;;;;5027373;28;20448;-71
2024/01/31 10:47:17;;;;;;;32.07;19.10;;;10.50;78.30;;;;;;5029199;28;20929;-71
2024/01/31 10:49:42;;;;;;;36.67;20.70;;;10.60;78.10;;;;;;5030582;28;20442;-71
2024/01/31 10:52:13;;;;;;;34.50;17.23;;;10.60;77.80;;;;;;5019643;28;20554;-73
2024/01/31 10:54:53;;;;;;;35.17;18.60;;;10.40;78.00;;;;;;5027378;28;20185;-73
2024/01/31 10:57:19;;;;;;;36.07;20.60;;;10.30;77.80;;;;;;5029903;28;20430;-72
2024/01/31 10:59:49;;;;;;;36.03;19.20;;;10.20;78.60;;;;;;5029030;28;20495;-70
2024/01/31 11:02:15;;;;;;;37.83;18.77;;;10.20;78.70;;;;;;5023307;28;20474;-71
2024/01/31 11:04:43;;;;;;;34.53;19.23;;;10.20;78.90;;;;;;5027781;28;20490;-70
2024/01/31 11:07:19;;;;;;;42.37;18.73;;;10.40;78.90;;;;;;5029023;28;20546;-71
2024/01/31 11:09:46;;;;;;;35.57;19.30;;;10.50;78.60;;;;;;5029495;28;20415;-71
2024/01/31 11:12:14;;;;;;;34.33;18.70;;;10.60;78.30;;;;;;5027527;28;20558;-71
2024/01/31 11:14:47;;;;;;;32.27;17.83;;;10.80;77.80;;;;;;5030469;28;20511;-71
2024/01/31 11:17:26;;;;;;;38.70;18.53;;;10.90;77.00;;;;;;5031026;28;20419;-71
2024/01/31 11:19:59;;;;;;;42.27;18.23;;;11.00;76.50;;;;;;5032842;28;20455;-72
2024/01/31 11:22:25;;;;;;;34.27;18.87;;;11.00;76.10;;;;;;5027366;28;20539;-70
2024/01/31 11:24:53;;;;;;;32.73;19.17;;;11.10;75.70;;;;;;5031086;28;20510;-72
2024/01/31 11:27:19;;;;;;;34.63;19.00;;;11.10;75.70;;;;;;5029192;28;20475;-71
2024/01/31 11:29:48;;;;;;;33.53;18.77;;;10.90;76.10;;;;;;5030149;28;20843;-71
2024/01/31 11:32:15;;;;;;;32.10;18.67;;;11.00;76.20;;;;;;5022057;28;20531;-71
2024/01/31 11:34:42;;;;;;;30.80;18.23;;;11.10;75.90;;;;;;5022998;28;20440;-70
2024/01/31 11:37:08;;;;;;;31.10;17.73;;;11.30;75.50;;;;;;5026762;28;20461;-71
2024/01/31 11:39:34;;;;;;;36.43;19.93;;;11.30;75.10;;;;;;5030795;28;20420;-72
2024/01/31 11:42:00;;;;;;;38.43;20.50;;;11.20;74.90;;;;;;5027746;28;20460;-71
2024/01/31 11:44:26;;;;;;;30.90;18.50;;;11.20;75.70;;;;;;5029003;28;20432;-71
2024/01/31 11:46:52;;;;;;;36.17;18.00;;;11.30;75.40;;;;;;5028636;28;20254;-72
2024/01/31 11:49:18;;;;;;;30.67;17.80;;;11.40;75.20;;;;;;5029770;28;20181;-72
2024/01/31 11:51:44;;;;;;;33.57;18.60;;;11.40;75.10;;;;;;5023390;28;20454;-71
2024/01/31 11:54:10;;;;;;;41.57;20.43;;;11.50;74.60;;;;;;5025344;28;20960;-72
2024/01/31 11:56:36;;;;;;;37.27;20.97;;;11.40;74.50;;;;;;5028702;28;20185;-71
2024/01/31 11:59:03;;;;;;;34.47;19.10;;;11.10;75.40;;;;;;5025565;28;20442;-71
2024/01/31 12:01:30;;;;;;;37.33;20.40;;;11.10;76.10;;;;;;5021117;28;20657;-72
2024/01/31 12:03:55;;;;;;;32.90;17.10;;;10.90;76.40;;;;;;5026293;28;20430;-72
2024/01/31 12:06:21;;;;;;;29.93;18.17;;;11.00;76.50;;;;;;5029374;28;20463;-71
2024/01/31 12:08:49;;;;;;;33.70;17.77;;;11.10;75.90;;;;;;5032569;28;20196;-71
2024/01/31 12:11:18;;;;;;;30.80;18.43;;;11.10;75.80;;;;;;5025085;28;20220;-71
2024/01/31 12:13:44;;;;;;;37.20;18.80;;;11.00;75.50;;;;;;5028587;28;20424;-71
2024/01/31 12:16:10;;;;;;;35.57;18.30;;;11.10;75.80;;;;;;5032594;28;20446;-71
2024/01/31 12:18:36;;;;;;;38.17;18.47;;;10.90;76.10;;;;;;5032596;28;20839;-72
2024/01/31 12:21:03;;;;;;;31.80;17.43;;;10.80;76.10;;;;;;5028188;28;20456;-72
2024/01/31 12:23:29;;;;;;;45.63;19.33;;;11.00;76.70;;;;;;5025647;28;20535;-73
2024/01/31 12:25:57;;;;;;;31.63;19.30;;;10.90;76.20;;;;;;5032219;28;20412;-72
2024/01/31 12:28:23;;;;;;;34.07;18.60;;;10.90;76.20;;;;;;5032945;28;20432;-71
2024/01/31 12:30:49;;;;;;;33.20;17.50;;;11.00;76.70;;;;;;5027249;28;20518;-73